Time;durP1;ratioP1;P1;durP2;ratioP2;P2;SDS_P1;SDS_P2;PMS_P1;PMS_P2;Temp;Humidity;BMP_temperature;BMP_pressure;BME280_temperature;BME280_humidity;BME280_pressure;Samples;Min_cycle;Max_cycle;Signal;HPM_P1;HPM_P2
2022/07/14 00:03:02;;;;;;;7.90;3.60;;;;;;;15.94;91.59;99549.42;105207;1271;60597;-77
2022/07/14 00:05:50;;;;;;;8.60;3.60;;;;;;;15.91;91.80;99548.38;105114;1271;74462;-77
2022/07/14 00:08:38;;;;;;;10.10;3.50;;;;;;;15.88;91.73;99552.23;105090;1271;69475;-75
2022/07/14 00:11:27;;;;;;;9.30;3.00;;;;;;;15.86;91.89;99557.30;105005;1271;72942;-75
2022/07/14 00:14:15;;;;;;;7.70;3.10;;;;;;;15.84;92.05;99555.92;105004;1271;60895;-78
2022/07/14 00:17:06;;;;;;;9.20;3.20;;;;;;;15.80;91.64;99552.52;105108;1271;61022;-77
2022/07/14 00:19:55;;;;;;;9.10;2.80;;;;;;;15.78;90.87;99556.82;105320;1271;74962;-76
2022/07/14 00:22:43;;;;;;;8.00;3.00;;;;;;;15.75;90.56;99549.47;105243;1271;68125;-77
2022/07/14 00:25:31;;;;;;;7.10;2.50;;;;;;;15.73;90.43;99546.65;104877;1273;72668;-76
2022/07/14 00:28:19;;;;;;;7.50;2.60;;;;;;;15.70;90.12;99547.86;104986;1271;60457;-76
2022/07/14 00:31:10;;;;;;;10.00;3.20;;;;;;;15.68;90.39;99543.29;105185;1273;60320;-75
2022/07/14 00:34:00;;;;;;;11.10;3.20;;;;;;;15.65;89.98;99539.08;105009;1272;75579;-77
2022/07/14 00:36:48;;;;;;;10.30;3.30;;;;;;;15.62;89.95;99541.94;104960;1272;69636;-76
2022/07/14 00:42:50;;;;;;;8.50;2.80;;;;;;;15.54;90.63;99545.95;105082;1271;60586;-75
2022/07/14 00:45:38;;;;;;;7.40;2.70;;;;;;;15.49;90.91;99548.64;105029;1271;60873;-76
2022/07/14 00:48:27;;;;;;;10.70;2.40;;;;;;;15.43;91.14;99551.07;104969;1271;72791;-77
2022/07/14 00:51:15;;;;;;;9.80;3.20;;;;;;;15.39;90.21;99553.99;104950;1271;65779;-77
2022/07/14 00:54:04;;;;;;;9.00;2.80;;;;;;;15.35;89.86;99553.36;104844;1273;72678;-77
2022/07/14 00:56:53;;;;;;;10.20;2.60;;;;;;;15.30;89.16;99551.54;105026;1271;61182;-78
2022/07/14 00:59:41;;;;;;;12.00;3.00;;;;;;;15.25;88.86;99549.21;105055;1271;60460;-76
2022/07/14 01:02:29;;;;;;;10.00;2.40;;;;;;;15.21;88.66;99550.33;105042;1271;74035;-74
2022/07/14 01:05:17;;;;;;;11.30;2.80;;;;;;;15.18;88.02;99554.08;105179;1271;69602;-75
2022/07/14 01:08:05;;;;;;;11.70;2.50;;;;;;;15.14;87.84;99561.23;105323;1271;72912;-75
2022/07/14 01:10:53;;;;;;;10.70;3.00;;;;;;;15.10;87.54;99561.89;104944;1272;60995;-74
2022/07/14 01:13:45;;;;;;;10.10;2.50;;;;;;;15.05;87.62;99556.73;105281;1271;60486;-75
2022/07/14 01:16:33;;;;;;;12.40;2.60;;;;;;;15.01;87.38;99559.50;105061;1274;74528;-74
2022/07/14 01:19:23;;;;;;;8.50;2.20;;;;;;;14.97;86.94;99563.20;104871;1273;68180;-74
2022/07/14 01:22:12;;;;;;;11.90;2.40;;;;;;;14.93;86.75;99558.59;105061;1274;74202;-76
2022/07/14 01:25:00;;;;;;;7.10;1.90;;;;;;;14.90;86.09;99563.66;104931;1273;60507;-77
2022/07/14 01:27:49;;;;;;;9.00;2.20;;;;;;;14.86;85.53;99561.13;105196;1274;61602;-75
2022/07/14 01:30:37;;;;;;;10.10;2.00;;;;;;;14.84;84.47;99560.18;105180;1274;72919;-75
2022/07/14 01:33:26;;;;;;;11.90;2.20;;;;;;;14.80;84.11;99557.42;104918;1274;68376;-74
2022/07/14 01:36:13;;;;;;;9.70;2.10;;;;;;;14.77;83.96;99556.70;105079;1273;72342;-75
2022/07/14 01:39:04;;;;;;;9.20;2.60;;;;;;;14.73;84.02;99559.95;105130;1274;60470;-77
2022/07/14 01:41:52;;;;;;;10.70;2.20;;;;;;;14.68;83.96;99560.84;104814;1274;61430;-76
2022/07/14 01:44:40;;;;;;;9.10;2.20;;;;;;;14.63;83.80;99562.44;105209;1274;72810;-77
2022/07/14 01:47:28;;;;;;;8.80;1.90;;;;;;;14.59;84.32;99561.41;105087;1274;69935;-76
2022/07/14 01:50:16;;;;;;;9.60;2.10;;;;;;;14.54;83.88;99559.36;104943;1274;71636;-75
2022/07/14 01:53:04;;;;;;;9.00;1.90;;;;;;;14.51;83.87;99567.55;105115;1273;60449;-75
2022/07/14 01:55:53;;;;;;;14.40;2.00;;;;;;;14.45;83.97;99569.02;104923;1274;62126;-77
2022/07/14 01:58:41;;;;;;;11.00;2.00;;;;;;;14.40;84.18;99566.73;105032;1274;74100;-76
2022/07/14 02:01:41;;;;;;;9.70;1.90;;;;;;;14.33;84.53;99568.63;104862;1274;70132;-75
2022/07/14 02:04:31;;;;;;;9.90;1.90;;;;;;;14.27;84.68;99566.54;105122;1273;73977;-75
2022/07/14 02:07:19;;;;;;;12.40;2.00;;;;;;;14.24;84.99;99567.85;104942;1274;60556;-75
2022/07/14 02:13:18;;;;;;;12.40;2.50;;;;;;;14.14;85.11;99568.70;104882;1274;73451;-75
2022/07/14 02:16:08;;;;;;;11.40;1.90;;;;;;;14.12;85.06;99574.34;105080;1271;65755;-76
2022/07/14 02:18:58;;;;;;;11.40;2.10;;;;;;;14.07;85.02;99571.05;104912;1271;71591;-75
2022/07/14 02:21:47;;;;;;;9.00;2.10;;;;;;;14.05;84.99;99568.99;104913;1271;60555;-76
2022/07/14 02:24:35;;;;;;;8.10;1.80;;;;;;;13.99;84.89;99566.23;105157;1271;60462;-75
2022/07/14 02:27:26;;;;;;;8.50;1.80;;;;;;;13.98;84.98;99574.17;104877;1271;75703;-75
2022/07/14 02:30:14;;;;;;;10.00;2.10;;;;;;;13.93;85.00;99569.45;104972;1271;68585;-76
2022/07/14 02:33:02;;;;;;;10.00;1.90;;;;;;;13.89;85.30;99574.11;104990;1271;73333;-77
2022/07/14 02:35:50;;;;;;;11.90;2.10;;;;;;;13.86;85.36;99579.63;105210;1271;60453;-75
2022/07/14 02:38:38;;;;;;;9.60;1.60;;;;;;;13.83;85.47;99587.55;104967;1271;60409;-76
2022/07/14 02:41:26;;;;;;;9.40;2.00;;;;;;;13.80;85.55;99590.14;104914;1274;73795;-77
2022/07/14 02:44:15;;;;;;;9.90;1.80;;;;;;;13.77;85.70;99595.78;104770;1273;66819;-75
2022/07/14 02:47:04;;;;;;;9.80;1.80;;;;;;;13.74;85.96;99595.75;105145;1271;71826;-76
2022/07/14 02:49:52;;;;;;;9.30;1.90;;;;;;;13.72;86.11;99595.39;105082;1272;60702;-76
2022/07/14 02:52:40;;;;;;;11.00;1.90;;;;;;;13.71;85.87;99597.66;105043;1271;61297;-78
2022/07/14 02:55:29;;;;;;;10.60;1.80;;;;;;;13.70;85.83;99596.51;104977;1271;73659;-73
2022/07/14 02:58:18;;;;;;;12.00;2.00;;;;;;;13.69;85.93;99598.01;105020;1271;69590;-76
2022/07/14 03:01:08;;;;;;;11.90;1.80;;;;;;;13.69;85.52;99596.76;104979;1271;74262;-76
2022/07/14 03:03:57;;;;;;;10.90;1.50;;;;;;;13.69;85.00;99596.56;105216;1271;60889;-76
2022/07/14 03:06:46;;;;;;;8.70;1.50;;;;;;;13.68;84.97;99602.27;105177;1271;61506;-76
2022/07/14 03:09:36;;;;;;;8.60;1.50;;;;;;;13.67;84.46;99603.21;104862;1271;74119;-76
2022/07/14 03:12:26;;;;;;;7.50;1.50;;;;;;;13.68;84.17;99609.39;105051;1271;69701;-76
2022/07/14 03:15:14;;;;;;;7.90;1.70;;;;;;;13.68;83.92;99610.95;105200;1271;74405;-76
2022/07/14 03:18:04;;;;;;;12.90;1.70;;;;;;;13.67;83.68;99608.98;104906;1271;60501;-76
2022/07/14 03:20:53;;;;;;;9.30;1.40;;;;;;;13.66;83.63;99609.00;105036;1271;62037;-76
2022/07/14 03:23:44;;;;;;;8.50;1.30;;;;;;;13.66;83.58;99609.73;105005;1271;72838;-77
2022/07/14 03:26:36;;;;;;;7.20;1.50;;;;;;;13.64;83.66;99611.48;105151;1271;65783;-75
2022/07/14 03:29:27;;;;;;;11.10;1.50;;;;;;;13.63;83.69;99613.95;104938;1271;73181;-77
2022/07/14 03:32:15;;;;;;;12.20;1.90;;;;;;;13.62;83.25;99616.15;105008;1272;60500;-73
2022/07/14 03:35:05;;;;;;;8.40;1.60;;;;;;;13.62;82.87;99624.48;105473;1271;61484;-76
2022/07/14 03:37:54;;;;;;;8.90;1.80;;;;;;;13.63;82.31;99623.89;105186;1270;73807;-77
2022/07/14 03:41:06;;;;;;;7.60;1.60;;;;;;;13.64;82.27;99620.21;105070;1271;67835;-76
2022/07/14 03:43:56;;;;;;;9.70;1.50;;;;;;;13.65;81.86;99621.63;105333;1271;73968;-76
2022/07/14 03:46:45;;;;;;;6.50;1.40;;;;;;;13.66;81.78;99621.48;105452;1271;60444;-76
2022/07/14 03:49:37;;;;;;;7.60;1.40;;;;;;;13.68;81.43;99622.36;105181;1271;61635;-74
2022/07/14 03:52:26;;;;;;;9.70;1.50;;;;;;;13.69;81.06;99619.06;104939;1271;74152;-77
2022/07/14 03:55:14;;;;;;;9.40;1.60;;;;;;;13.70;81.09;99616.27;105087;1272;69553;-75
2022/07/14 03:58:02;;;;;;;7.10;1.20;;;;;;;13.72;80.82;99611.23;104961;1271;70423;-77
2022/07/14 04:00:52;;;;;;;8.50;1.20;;;;;;;13.75;80.43;99607.21;105096;1271;60504;-74
2022/07/14 04:03:40;;;;;;;8.60;1.80;;;;;;;13.79;80.21;99609.02;105088;1272;60529;-75
2022/07/14 04:06:28;;;;;;;11.90;2.00;;;;;;;13.82;79.53;99604.83;105085;1271;74087;-75
2022/07/14 04:09:16;;;;;;;5.20;1.00;;;;;;;13.81;79.07;99598.24;104969;1272;68474;-76
2022/07/14 04:12:10;;;;;;;8.60;1.40;;;;;;;13.89;78.94;99598.40;105156;1272;72954;-75
2022/07/14 04:14:59;;;;;;;6.90;1.20;;;;;;;13.93;78.29;99595.98;105426;1271;60452;-75
2022/07/14 04:17:47;;;;;;;10.00;1.40;;;;;;;13.99;78.02;99597.98;105093;1271;60572;-76
2022/07/14 04:20:36;;;;;;;9.80;1.40;;;;;;;14.04;78.30;99604.55;105103;1271;74282;-75
2022/07/14 04:23:25;;;;;;;13.30;1.60;;;;;;;14.10;77.67;99605.96;104757;1273;68358;-74
2022/07/14 04:26:14;;;;;;;8.00;1.40;;;;;;;14.16;77.52;99605.68;105062;1272;71477;-75
2022/07/14 04:29:06;;;;;;;8.40;1.30;;;;;;;14.22;77.04;99597.20;105431;1271;60500;-75
2022/07/14 04:31:54;;;;;;;8.20;1.50;;;;;;;14.30;76.60;99597.81;105003;1271;61497;-75
2022/07/14 04:34:44;;;;;;;9.50;1.30;;;;;;;14.40;76.82;99593.87;104964;1271;75476;-76
2022/07/14 04:37:34;;;;;;;12.60;1.60;;;;;;;14.48;76.28;99593.88;104962;1271;69389;-75
2022/07/14 04:40:29;;;;;;;11.80;1.50;;;;;;;14.65;75.94;99592.42;105298;1271;73031;-75
2022/07/14 04:43:18;;;;;;;10.90;1.50;;;;;;;14.84;74.23;99592.96;105244;1271;60926;-77
2022/07/14 04:46:08;;;;;;;8.90;1.40;;;;;;;15.13;73.45;99586.58;104989;1271;61053;-76
2022/07/14 04:52:09;;;;;;;8.30;1.20;;;;;;;15.99;70.39;99589.81;105078;1271;67113;-77
2022/07/14 04:55:09;;;;;;;8.10;1.50;;;;;;;16.66;68.01;99586.83;104959;1271;72739;-78
2022/07/14 04:58:07;;;;;;;11.50;1.40;;;;;;;17.41;64.96;99583.20;104873;1271;60392;-77
2022/07/14 05:00:58;;;;;;;7.70;1.40;;;;;;;18.06;61.82;99581.58;104985;1272;60386;-77
2022/07/14 05:03:51;;;;;;;7.80;1.40;;;;;;;18.79;59.47;99577.00;105339;1272;74252;-76
2022/07/14 05:06:39;;;;;;;5.90;1.40;;;;;;;19.40;56.51;99580.14;105106;1271;67934;-77
2022/07/14 05:09:32;;;;;;;8.10;1.40;;;;;;;19.89;55.04;99573.89;105095;1271;74190;-76
2022/07/14 05:12:23;;;;;;;7.60;1.30;;;;;;;20.45;52.78;99572.50;105290;1271;60469;-75
2022/07/14 05:15:12;;;;;;;7.60;1.00;;;;;;;20.89;51.14;99571.60;105357;1271;61929;-75
2022/07/14 05:18:00;;;;;;;8.40;1.10;;;;;;;21.34;49.84;99576.06;105017;1274;74506;-76
2022/07/14 05:20:48;;;;;;;7.00;1.20;;;;;;;21.80;48.30;99579.00;105265;1271;68682;-78
2022/07/14 05:23:37;;;;;;;7.50;1.10;;;;;;;22.25;46.83;99572.98;105091;1271;413475;-75
2022/07/14 05:26:25;;;;;;;7.80;1.10;;;;;;;22.89;45.15;99568.95;105164;1271;60522;-73
2022/07/14 05:29:13;;;;;;;6.90;1.60;;;;;;;23.63;44.60;99577.61;105285;1271;60379;-74
2022/07/14 05:32:02;;;;;;;8.70;1.60;;;;;;;24.24;42.01;99583.02;104938;1271;74060;-74
2022/07/14 05:34:51;;;;;;;7.70;1.30;;;;;;;24.43;40.97;99586.31;104864;1271;68554;-74
2022/07/14 05:37:39;;;;;;;7.10;1.00;;;;;;;24.78;40.01;99591.95;105039;1271;71674;-76
2022/07/14 05:40:27;;;;;;;6.50;1.00;;;;;;;24.22;40.66;99594.16;104888;1271;60443;-75
2022/07/14 05:43:16;;;;;;;8.40;1.30;;;;;;;23.63;42.50;99596.70;105446;1271;60449;-74
2022/07/14 05:46:09;;;;;;;7.90;1.00;;;;;;;23.46;42.56;99593.61;104946;1271;73041;-76
2022/07/14 05:49:00;;;;;;;8.20;1.50;;;;;;;22.94;42.74;99598.45;104967;1272;68108;-76
2022/07/14 05:51:51;;;;;;;7.80;1.30;;;;;;;22.51;43.93;99606.55;104977;1272;72754;-78
2022/07/14 05:54:40;;;;;;;10.10;1.60;;;;;;;22.13;43.90;99604.08;105196;1271;60619;-76
2022/07/14 05:57:28;;;;;;;6.60;1.20;;;;;;;22.31;44.07;99607.81;105207;1271;60553;-73
2022/07/14 06:00:16;;;;;;;6.30;1.40;;;;;;;23.21;42.00;99599.98;104982;1271;73718;-74
2022/07/14 06:03:06;;;;;;;7.80;1.30;;;;;;;23.80;40.28;99605.44;105028;1271;66524;-74
2022/07/14 06:05:58;;;;;;;6.00;1.00;;;;;;;23.65;40.13;99617.05;105004;1271;72835;-75
2022/07/14 06:08:47;;;;;;;9.10;2.00;;;;;;;24.24;39.32;99615.48;104946;1271;60495;-73
2022/07/14 06:11:36;;;;;;;6.90;1.20;;;;;;;25.24;37.93;99609.73;105052;1271;61403;-75
2022/07/14 06:14:25;;;;;;;8.30;1.40;;;;;;;25.72;36.89;99612.12;105168;1271;74484;-73
2022/07/14 06:17:14;;;;;;;6.40;1.20;;;;;;;24.85;37.65;99612.58;105326;1271;68169;-75
2022/07/14 06:20:07;;;;;;;6.20;1.00;;;;;;;24.59;38.30;99614.60;104923;1271;73701;-74
2022/07/14 06:22:59;;;;;;;6.80;0.90;;;;;;;25.33;36.87;99615.89;105109;1271;60585;-77
2022/07/14 06:25:47;;;;;;;9.50;1.20;;;;;;;26.12;35.56;99608.85;104989;1271;60466;-74
2022/07/14 06:28:39;;;;;;;6.80;1.20;;;;;;;26.84;34.33;99608.80;104980;1271;74233;-74
2022/07/14 06:31:28;;;;;;;6.00;0.90;;;;;;;26.74;34.06;99617.51;105040;1271;67773;-73
2022/07/14 06:34:17;;;;;;;7.30;1.20;;;;;;;26.62;34.26;99621.30;104969;1272;74412;-74
2022/07/14 06:37:31;;;;;;;9.60;1.30;;;;;;;26.15;33.96;99624.59;105226;1270;60560;-78
2022/07/14 06:40:20;;;;;;;8.30;1.20;;;;;;;25.59;34.80;99621.39;104977;1271;60432;-76
2022/07/14 06:43:09;;;;;;;8.20;1.10;;;;;;;25.79;34.60;99624.86;104827;1277;74362;-73
2022/07/14 06:46:16;;;;;;;6.40;1.30;;;;;;;25.94;34.28;99626.73;105138;1276;69625;-75
2022/07/14 06:49:04;;;;;;;8.90;1.20;;;;;;;26.30;33.05;99625.08;104708;1277;74060;-74
2022/07/14 06:51:52;;;;;;;6.80;1.00;;;;;;;26.76;31.99;99624.99;104725;1277;60716;-74
2022/07/14 06:54:43;;;;;;;7.30;1.00;;;;;;;27.12;31.58;99611.86;104795;1278;60715;-74
2022/07/14 06:57:31;;;;;;;8.30;1.00;;;;;;;27.60;31.14;99603.95;105080;1277;75036;-74
2022/07/14 07:00:19;;;;;;;7.10;1.00;;;;;;;28.12;30.14;99593.52;104669;1276;68146;-76
2022/07/14 07:03:12;;;;;;;6.00;0.90;;;;;;;28.79;29.05;99596.36;104836;1277;72968;-76
2022/07/14 07:09:06;;;;;;;7.90;1.20;;;;;;;29.08;28.69;99596.98;104849;1276;60807;-73
2022/07/14 07:11:54;;;;;;;5.70;0.80;;;;;;;29.81;27.69;99601.31;104756;1276;74066;-72
2022/07/14 07:14:42;;;;;;;7.80;1.00;;;;;;;30.22;26.38;99602.88;104945;1277;68062;-73
2022/07/14 07:17:30;;;;;;;7.60;1.10;;;;;;;30.62;25.69;99597.79;104698;1278;72952;-72
2022/07/14 07:20:17;;;;;;;7.30;0.90;;;;;;;30.19;26.25;99598.50;104556;1277;60708;-71
2022/07/14 07:23:06;;;;;;;7.30;0.90;;;;;;;28.85;27.60;99600.34;104709;1277;60607;-70
2022/07/14 07:25:54;;;;;;;7.30;0.80;;;;;;;27.31;29.64;99611.45;104724;1276;72498;-73
2022/07/14 07:28:43;;;;;;;6.10;0.90;;;;;;;26.01;32.00;99621.00;104694;1276;69681;-73
2022/07/14 07:31:32;;;;;;;6.50;0.90;;;;;;;26.24;31.74;99624.13;104855;1277;73886;-71
2022/07/14 07:34:20;;;;;;;7.80;1.00;;;;;;;26.35;31.42;99622.31;104640;1277;60604;-73
2022/07/14 07:37:09;;;;;;;6.20;1.00;;;;;;;26.81;31.19;99623.16;105023;1276;60355;-72
2022/07/14 07:40:15;;;;;;;6.60;1.20;;;;;;;27.11;30.69;99615.98;104951;1276;74196;-75
2022/07/14 07:43:03;;;;;;;6.70;1.20;;;;;;;25.98;32.26;99620.91;104961;1276;67969;-76
2022/07/14 07:45:51;;;;;;;7.00;1.10;;;;;;;24.97;34.49;99626.39;104581;1277;71807;-71
2022/07/14 07:48:40;;;;;;;8.00;1.10;;;;;;;23.92;36.70;99626.77;104886;1274;60575;-72
2022/07/14 07:51:28;;;;;;;7.20;1.10;;;;;;;23.18;38.92;99627.89;104931;1274;60421;-74
2022/07/14 07:54:16;;;;;;;8.10;1.30;;;;;;;24.19;37.88;99620.34;104977;1274;72848;-72
2022/07/14 07:57:05;;;;;;;6.80;1.20;;;;;;;25.35;36.16;99623.36;105064;1273;69725;-74
2022/07/14 07:59:53;;;;;;;7.10;1.10;;;;;;;25.69;34.96;99616.89;105025;1274;71543;-71
2022/07/14 08:02:52;;;;;;;7.50;1.00;;;;;;;24.87;35.14;99619.08;104985;1274;60523;-74
2022/07/14 08:05:42;;;;;;;6.60;1.20;;;;;;;23.84;36.09;99620.18;104884;1272;60384;-73
2022/07/14 08:08:39;;;;;;;7.50;1.10;;;;;;;24.15;35.61;99620.43;104996;1273;74126;-71
2022/07/14 08:11:27;;;;;;;7.40;1.10;;;;;;;25.48;33.36;99609.17;105041;1274;68652;-73
2022/07/14 08:17:22;;;;;;;7.90;0.70;;;;;;;26.87;30.83;99614.70;105273;1274;60578;-74
2022/07/14 08:20:12;;;;;;;6.60;1.10;;;;;;;26.83;30.46;99612.69;105032;1274;60413;-69
2022/07/14 08:23:01;;;;;;;5.70;1.00;;;;;;;26.17;30.81;99620.65;104893;1274;75583;-74
2022/07/14 08:25:49;;;;;;;5.90;1.10;;;;;;;25.26;32.25;99622.05;104900;1273;68375;-71
2022/07/14 08:28:37;;;;;;;6.50;1.10;;;;;;;24.48;33.66;99625.55;105257;1273;72819;-73
2022/07/14 08:31:25;;;;;;;7.50;1.20;;;;;;;25.15;32.98;99629.98;105115;1273;60667;-72
2022/07/14 08:34:13;;;;;;;5.90;1.10;;;;;;;26.63;30.09;99622.12;104938;1274;61077;-72
2022/07/14 08:37:01;;;;;;;5.50;0.70;;;;;;;27.51;28.36;99617.58;105006;1274;73913;-73
2022/07/14 08:39:49;;;;;;;6.80;1.00;;;;;;;28.04;27.36;99610.08;104953;1274;69362;-74
2022/07/14 08:42:42;;;;;;;7.80;0.80;;;;;;;28.13;26.78;99616.70;105248;1273;74586;-72
2022/07/14 08:45:35;;;;;;;7.50;0.90;;;;;;;28.04;27.33;99614.36;104938;1274;60577;-73
2022/07/14 08:48:25;;;;;;;6.20;1.00;;;;;;;27.71;27.62;99625.96;104923;1274;61005;-75
2022/07/14 08:51:13;;;;;;;7.40;1.20;;;;;;;26.80;28.44;99628.14;104902;1273;75176;-74
2022/07/14 08:54:01;;;;;;;6.80;1.00;;;;;;;26.88;28.84;99637.10;105158;1274;67105;-73
2022/07/14 08:56:51;;;;;;;6.00;0.80;;;;;;;26.54;29.07;99632.50;104982;1274;73342;-72
2022/07/14 08:59:40;;;;;;;7.10;0.90;;;;;;;25.89;30.12;99637.77;104883;1274;60562;-74
2022/07/14 09:02:28;;;;;;;5.70;0.80;;;;;;;24.96;31.26;99646.73;104983;1274;60472;-72
2022/07/14 09:05:18;;;;;;;6.70;1.00;;;;;;;24.75;31.99;99650.23;104929;1274;74591;-71
2022/07/14 09:08:05;;;;;;;5.80;0.90;;;;;;;23.87;33.12;99647.23;105090;1274;65605;-74
2022/07/14 09:10:54;;;;;;;7.60;1.00;;;;;;;22.98;34.57;99655.05;104912;1273;71575;-72
2022/07/14 09:14:09;;;;;;;5.20;0.90;;;;;;;22.59;35.24;99656.73;104884;1273;61025;-73
2022/07/14 09:17:16;;;;;;;5.50;0.90;;;;;;;22.28;36.36;99658.98;104744;1274;60571;-73
2022/07/14 09:20:11;;;;;;;8.30;2.30;;;;;;;22.01;37.46;99660.64;105083;1274;74797;-73
2022/07/14 09:23:02;;;;;;;7.30;1.50;;;;;;;22.98;36.53;99655.86;104860;1274;67553;-75
2022/07/14 09:26:13;;;;;;;7.80;2.10;;;;;;;24.23;35.11;99644.34;104980;1274;73370;-73
2022/07/14 09:29:03;;;;;;;8.50;1.50;;;;;;;25.88;32.98;99635.27;105205;1273;60561;-74
2022/07/14 09:31:52;;;;;;;8.60;1.50;;;;;;;25.91;32.62;99636.86;105024;1274;60851;-74
2022/07/14 09:34:40;;;;;;;8.10;1.10;;;;;;;25.28;33.94;99646.62;105033;1274;73776;-78
2022/07/14 09:37:29;;;;;;;8.20;1.30;;;;;;;24.45;35.37;99656.48;105111;1274;68014;-73
2022/07/14 09:40:36;;;;;;;8.00;1.10;;;;;;;24.11;36.37;99659.02;105192;1274;70815;-73
2022/07/14 09:43:24;;;;;;;7.30;0.90;;;;;;;24.31;36.41;99661.41;104852;1274;60550;-72
2022/07/14 09:46:14;;;;;;;9.40;1.20;;;;;;;24.37;36.20;99667.77;104918;1274;61406;-74
2022/07/14 09:49:09;;;;;;;6.70;1.30;;;;;;;23.70;37.22;99673.19;104985;1274;72925;-74
2022/07/14 09:52:06;;;;;;;6.60;1.00;;;;;;;22.78;38.80;99676.42;104949;1274;69400;-73
2022/07/14 09:54:54;;;;;;;10.50;1.30;;;;;;;23.16;38.68;99670.27;104796;1274;73765;-73
2022/07/14 09:57:43;;;;;;;8.10;1.10;;;;;;;24.03;37.28;99663.02;105009;1273;60491;-72
2022/07/14 10:00:33;;;;;;;6.40;1.20;;;;;;;24.98;35.46;99661.14;105212;1273;60504;-71
2022/07/14 10:03:23;;;;;;;6.70;1.00;;;;;;;25.40;34.41;99660.45;105161;1273;74577;-74
2022/07/14 10:06:13;;;;;;;8.00;1.30;;;;;;;25.08;33.75;99658.59;104980;1273;68520;-73
2022/07/14 10:09:20;;;;;;;8.80;1.40;;;;;;;24.36;35.40;99659.11;104936;1273;72915;-71
2022/07/14 10:12:10;;;;;;;6.90;1.20;;;;;;;23.80;36.50;99657.64;105020;1272;60344;-74
2022/07/14 10:15:02;;;;;;;6.40;1.10;;;;;;;23.62;37.16;99655.29;105199;1271;60870;-72
2022/07/14 10:17:52;;;;;;;7.40;1.00;;;;;;;23.37;37.71;99661.43;105171;1271;74562;-72
2022/07/14 10:20:40;;;;;;;7.30;0.90;;;;;;;24.23;36.39;99659.38;105393;1271;67830;-73
2022/07/14 10:23:29;;;;;;;4.90;0.90;;;;;;;24.56;34.97;99655.11;105182;1271;71566;-74
2022/07/14 10:26:18;;;;;;;6.60;1.10;;;;;;;24.31;33.03;99662.16;104988;1271;60574;-71
2022/07/14 10:29:08;;;;;;;6.30;1.10;;;;;;;24.75;32.50;99658.95;105161;1271;60562;-72
2022/07/14 10:32:07;;;;;;;5.70;0.90;;;;;;;25.13;31.78;99661.80;105145;1271;72756;-70
2022/07/14 10:35:25;;;;;;;6.70;1.10;;;;;;;24.71;32.96;99662.96;104976;1271;67900;-72
2022/07/14 10:38:45;;;;;;;9.30;1.90;;;;;;;24.02;33.73;99666.05;105023;1271;72859;-78
2022/07/14 10:41:39;;;;;;;7.30;1.10;;;;;;;23.18;35.87;99676.90;104908;1271;60464;-70
2022/07/14 10:44:34;;;;;;;9.00;1.50;;;;;;;22.33;38.47;99681.79;105002;1271;62206;-75
2022/07/14 10:47:25;;;;;;;6.30;1.50;;;;;;;21.68;39.34;99679.73;105203;1271;72966;-71
2022/07/14 10:50:18;;;;;;;7.50;1.10;;;;;;;21.59;39.71;99673.30;104907;1271;67090;-73
2022/07/14 10:53:08;;;;;;;7.10;1.50;;;;;;;22.30;38.98;99663.64;104993;1271;71464;-74
2022/07/14 10:55:56;;;;;;;6.80;1.10;;;;;;;23.31;37.58;99651.29;105378;1271;60601;-74
2022/07/14 10:58:44;;;;;;;7.70;1.60;;;;;;;24.36;35.24;99642.79;105038;1271;60554;-72
2022/07/14 11:01:32;;;;;;;8.70;3.70;;;;;;;25.23;33.75;99644.14;105054;1271;74047;-73
2022/07/14 11:05:14;;;;;;;8.90;1.90;;;;;;;25.11;34.04;99652.89;105023;1271;67807;-74
2022/07/14 11:08:03;;;;;;;6.50;1.90;;;;;;;25.35;33.36;99655.90;104935;1272;71773;-75
2022/07/14 11:10:54;;;;;;;6.50;1.10;;;;;;;24.52;33.68;99660.05;105265;1271;61007;-76
2022/07/14 11:14:05;;;;;;;7.40;1.10;;;;;;;23.67;35.35;99665.99;105170;1271;61321;-78
2022/07/14 11:16:56;;;;;;;6.20;1.20;;;;;;;22.83;37.10;99677.05;105363;1271;72776;-77
2022/07/14 11:19:52;;;;;;;9.60;1.40;;;;;;;22.61;38.14;99680.09;105384;1271;69516;-76
2022/07/14 11:22:41;;;;;;;8.60;1.10;;;;;;;23.17;36.57;99671.45;105166;1271;72822;-77
2022/07/14 11:25:29;;;;;;;6.40;1.20;;;;;;;23.39;36.56;99670.83;105200;1271;60451;-77
2022/07/14 11:28:43;;;;;;;7.30;1.20;;;;;;;23.38;36.57;99665.77;105358;1271;60344;-78
2022/07/14 11:31:52;;;;;;;5.50;0.90;;;;;;;23.95;36.19;99655.08;105287;1271;75146;-77
2022/07/14 11:38:21;;;;;;;6.80;1.10;;;;;;;25.01;33.50;99656.27;105184;1271;73561;-75
2022/07/14 11:41:13;;;;;;;8.00;0.90;;;;;;;24.83;32.89;99655.92;105337;1271;60602;-71
2022/07/14 11:44:01;;;;;;;6.70;0.90;;;;;;;24.44;33.48;99648.94;105014;1271;60420;-69
2022/07/14 11:47:00;;;;;;;6.40;1.00;;;;;;;23.96;34.00;99651.82;105173;1271;72781;-72
2022/07/14 11:50:00;;;;;;;7.10;1.00;;;;;;;23.42;35.45;99659.87;105226;1271;67315;-74
2022/07/14 11:52:57;;;;;;;5.80;1.00;;;;;;;23.23;36.21;99660.88;105179;1271;72358;-71
2022/07/14 11:55:46;;;;;;;7.10;1.30;;;;;;;23.31;34.78;99661.08;105054;1271;60519;-72
2022/07/14 11:58:35;;;;;;;6.30;1.20;;;;;;;23.33;34.38;99654.84;105112;1271;60619;-74
2022/07/14 12:01:31;;;;;;;7.30;1.40;;;;;;;23.33;35.07;99650.84;105118;1271;75581;-77
2022/07/14 12:04:19;;;;;;;6.70;1.10;;;;;;;23.24;35.31;99649.85;105077;1271;66962;-76
2022/07/14 12:07:07;;;;;;;7.20;1.20;;;;;;;22.94;36.24;99649.75;105224;1271;73899;-77
2022/07/14 12:09:55;;;;;;;5.50;0.90;;;;;;;22.57;37.88;99653.77;105069;1271;60498;-77
2022/07/14 12:12:47;;;;;;;6.70;1.10;;;;;;;22.23;38.52;99657.16;105053;1272;60374;-75
2022/07/14 12:15:36;;;;;;;7.60;1.20;;;;;;;22.19;38.71;99656.52;105414;1271;75421;-78
2022/07/14 12:18:31;;;;;;;8.70;1.20;;;;;;;22.10;38.50;99656.17;105254;1271;67392;-78
2022/07/14 12:21:36;;;;;;;6.50;1.30;;;;;;;22.11;39.08;99656.93;105329;1271;74684;-76
2022/07/14 12:24:26;;;;;;;7.50;1.10;;;;;;;22.31;38.76;99649.91;105125;1271;60476;-76
2022/07/14 12:27:15;;;;;;;7.00;1.10;;;;;;;22.17;38.53;99648.36;105185;1271;60488;-77
2022/07/14 12:30:04;;;;;;;6.60;1.10;;;;;;;22.10;38.98;99653.59;105199;1271;75552;-78
2022/07/14 12:32:55;;;;;;;6.50;0.90;;;;;;;22.00;39.34;99660.34;105181;1271;67283;-77
2022/07/14 12:35:45;;;;;;;6.20;1.10;;;;;;;21.63;39.81;99655.77;105220;1271;74463;-78
2022/07/14 12:38:36;;;;;;;8.20;1.40;;;;;;;21.70;40.33;99654.79;105081;1271;60437;-78
2022/07/14 12:41:26;;;;;;;7.40;1.30;;;;;;;21.90;40.12;99650.66;105172;1271;60436;-77
2022/07/14 12:44:14;;;;;;;5.00;1.00;;;;;;;21.70;39.76;99654.17;105177;1271;73944;-78
2022/07/14 12:47:09;;;;;;;4.70;0.70;;;;;;;21.56;40.47;99647.70;105601;1271;65693;-78
2022/07/14 12:49:57;;;;;;;8.00;1.40;;;;;;;21.50;39.45;99651.77;105447;1271;71573;-77
2022/07/14 12:52:57;;;;;;;6.50;1.00;;;;;;;21.35;38.76;99657.02;105275;1271;60475;-78
2022/07/14 12:55:45;;;;;;;4.90;0.90;;;;;;;21.48;39.70;99650.34;105376;1271;61023;-77
2022/07/14 12:58:36;;;;;;;6.50;0.90;;;;;;;21.68;39.75;99651.45;105135;1271;74535;-77
2022/07/14 13:01:25;;;;;;;6.10;0.80;;;;;;;21.58;39.44;99644.37;105252;1271;68940;-77
2022/07/14 13:04:28;;;;;;;7.10;1.00;;;;;;;21.34;39.83;99648.75;105082;1271;73043;-78
2022/07/14 13:07:22;;;;;;;5.70;1.00;;;;;;;21.08;40.96;99654.05;105149;1271;60587;-75
2022/07/14 13:10:22;;;;;;;7.50;1.30;;;;;;;20.99;41.82;99660.95;105404;1271;60598;-78
2022/07/14 13:13:27;;;;;;;5.90;0.80;;;;;;;21.06;42.14;99656.51;105281;1271;72040;-77
2022/07/14 13:16:20;;;;;;;6.90;1.10;;;;;;;21.23;41.82;99649.66;105481;1271;66729;-78
2022/07/14 13:19:16;;;;;;;7.90;1.00;;;;;;;21.35;41.69;99640.81;105297;1271;73896;-78
2022/07/14 13:22:07;;;;;;;6.60;0.90;;;;;;;21.28;40.74;99645.05;105251;1271;60460;-78
2022/07/14 13:24:55;;;;;;;5.80;1.00;;;;;;;21.07;40.70;99650.85;105286;1271;60822;-76
2022/07/14 13:27:44;;;;;;;6.90;1.10;;;;;;;20.64;41.35;99659.41;105308;1271;72375;-77
2022/07/14 13:30:32;;;;;;;5.00;1.20;;;;;;;20.25;42.49;99668.89;105285;1271;70075;-74
2022/07/14 13:33:20;;;;;;;7.30;1.20;;;;;;;20.05;43.14;99666.89;105428;1271;71642;-76
2022/07/14 13:36:11;;;;;;;6.30;1.20;;;;;;;19.98;42.47;99658.66;105197;1271;60553;-75